M/V Port Eads — WDD9878 — position and weather

sailwx.info

Track history (hours):
 
Tides and Currents Weather Stations Pressure Air Temp Water Temp Dewpoint Dewpoint Depression Visibility Wind Speed Wind Dir Waves Ship Positions

M/V Port Eads

Owner: Port Eads, LLC, Houma, LA. More information available from US FCC via Universal Licensing System and Coast Guard Vessel Documentation Center.

Last reported at 2017-Sep-12 12:37 UTC. Time now 2017-Sep-22 20:51 UTC.
Position N 28°54' W 090°42'.
Warning: this ship's position is 10 days out of date.

Length 47 m.

Type: Cargo ship. MMSI: 367317530.

Date/timePositionNaut miles runAvg speedWind from/ knotsBaromVisibWave heightAir tempDewpointWater temp
2017-Sep-12 12:37N 28°54' W 090°42'149 9.3
2017-Sep-11 20:33N 29°49' W 093°21'0 5.1
2017-Sep-11 20:30N 29°49' W 093°20'0 0.1
2017-Sep-11 19:47N 29°49' W 093°20'0 0.2
2017-Sep-11 19:29N 29°49' W 093°20'0 0.0
2017-Sep-11 18:48N 29°49' W 093°20'0 0.0
2017-Sep-11 18:17N 29°49' W 093°20'0 0.0
2017-Sep-11 17:58N 29°49' W 093°20'0 0.0
2017-Sep-11 17:26N 29°49' W 093°20'0 0.0
2017-Sep-11 16:59N 29°49' W 093°20'0 0.0
2017-Sep-11 11:28N 29°49' W 093°20'2 4.7
2017-Sep-11 10:59N 29°47' W 093°21'1 0.0
2017-Sep-10 01:06N 29°48' W 093°21'1 6.8
2017-Sep-10 00:57N 29°49' W 093°21'0 0.6
2017-Sep-10 00:18N 29°49' W 093°20'0 0.0
2017-Sep-09 22:47N 29°49' W 093°20'0 0.0
2017-Sep-09 17:39N 29°49' W 093°20'0 0.3
2017-Sep-09 17:20N 29°49' W 093°20'2 4.7
2017-Sep-09 16:52N 29°47' W 093°21'1 2.9
2017-Sep-09 16:30N 29°47' W 093°20'0 0.0
2017-Sep-09 16:00N 29°47' W 093°20'0 0.0
2017-Sep-09 15:30N 29°47' W 093°20'0 0.0
2017-Sep-09 15:01N 29°47' W 093°20'0 0.0
2017-Sep-09 14:29N 29°47' W 093°20'0 0.0
2017-Sep-09 13:57N 29°47' W 093°20'0 0.0
2017-Sep-09 13:13N 29°47' W 093°20'0 0.0
2017-Sep-09 13:00N 29°47' W 093°20'0 0.0
2017-Sep-09 12:30N 29°47' W 093°20'0 0.0
2017-Sep-09 12:01N 29°47' W 093°20'0 0.0
2017-Sep-09 11:29N 29°47' W 093°20'0 0.0
2017-Sep-09 10:57N 29°47' W 093°20'0 0.0
2017-Sep-09 10:26N 29°47' W 093°20'0 0.0
2017-Sep-09 09:58N 29°47' W 093°20'0 0.0
2017-Sep-09 09:30N 29°47' W 093°20'0 0.0
2017-Sep-09 08:58N 29°47' W 093°20'0 0.0
2017-Sep-09 08:30N 29°47' W 093°20'0 0.0
2017-Sep-09 07:59N 29°47' W 093°20'0 0.0
2017-Sep-09 07:30N 29°47' W 093°20'0 0.0
2017-Sep-09 07:00N 29°47' W 093°20'0 0.0
2017-Sep-09 06:30N 29°47' W 093°20'0 0.0
2017-Sep-09 04:29N 29°47' W 093°20'0 0.0
2017-Sep-09 03:50N 29°47' W 093°20'0 0.0
2017-Sep-09 02:20N 29°47' W 093°20'0 0.0
2017-Sep-09 02:00N 29°47' W 093°20'0 0.0
2017-Sep-09 01:21N 29°47' W 093°20'0 0.0
2017-Sep-09 01:00N 29°47' W 093°20'0 0.0
2017-Sep-09 00:30N 29°47' W 093°20'0 0.0
2017-Sep-09 00:00N 29°47' W 093°20'0 0.0
2017-Sep-08 23:30N 29°47' W 093°20'0 0.0
2017-Sep-08 23:00N 29°47' W 093°20'0 0.0
2017-Sep-08 22:30N 29°47' W 093°20'1 0.3
2017-Sep-08 20:23N 29°48' W 093°20'2 2.0
2017-Sep-08 19:34N 29°49' W 093°21'0 6.0
2017-Sep-08 19:30N 29°49' W 093°20'0 0.2
2017-Sep-08 19:00N 29°49' W 093°20'0 0.0
2017-Sep-08 18:30N 29°49' W 093°20'0 0.0
2017-Sep-08 18:00N 29°49' W 093°20'0 0.0
2017-Sep-08 17:30N 29°49' W 093°20'0 0.0
2017-Sep-08 17:00N 29°49' W 093°20'0 0.0
2017-Sep-08 16:30N 29°49' W 093°20'0 0.0
2017-Sep-08 16:00N 29°49' W 093°20'0 0.0
2017-Sep-08 15:30N 29°49' W 093°20'0 0.0
2017-Sep-08 15:00N 29°49' W 093°20'0 0.0
2017-Sep-08 14:30N 29°49' W 093°20'0 0.0
2017-Sep-08 13:10N 29°49' W 093°20'0 0.0
2017-Sep-08 13:00N 29°49' W 093°20'0 0.0
2017-Sep-08 12:30N 29°49' W 093°20'0 0.0
2017-Sep-08 12:00N 29°49' W 093°20'0 0.0
2017-Sep-08 11:27N 29°49' W 093°20'0 0.0
2017-Sep-08 09:54N 29°49' W 093°20'0 0.0
2017-Sep-08 08:48N 29°49' W 093°20'0 0.0
2017-Sep-08 08:18N 29°49' W 093°20'0 0.0
2017-Sep-08 07:55N 29°49' W 093°20'0 0.0
2017-Sep-08 07:31N 29°49' W 093°20'0 0.0
2017-Sep-08 06:44N 29°49' W 093°20'0 0.0
2017-Sep-08 06:16N 29°49' W 093°20'0 0.0
2017-Sep-08 04:57N 29°49' W 093°20'0 0.0
2017-Sep-08 03:06N 29°49' W 093°20'0 0.0
2017-Sep-08 02:38N 29°49' W 093°20'0 0.0
2017-Sep-08 02:17N 29°49' W 093°20'0 0.0
2017-Sep-08 02:00N 29°49' W 093°20'0 0.0
2017-Sep-08 01:30N 29°49' W 093°20'0 0.0
2017-Sep-08 01:00N 29°49' W 093°20'0 0.0
2017-Sep-08 00:30N 29°49' W 093°20'0 0.0
2017-Sep-08 00:00N 29°49' W 093°20'0 0.0
2017-Sep-07 23:30N 29°49' W 093°20'0 0.0
2017-Sep-07 23:00N 29°49' W 093°20'0 0.0
2017-Sep-07 22:30N 29°49' W 093°20'0 0.0
2017-Sep-07 22:00N 29°49' W 093°20'0 0.0
2017-Sep-07 21:30N 29°49' W 093°20'0 0.0
2017-Sep-07 21:00N 29°49' W 093°20'0 0.0
2017-Sep-07 20:30N 29°49' W 093°20'0 0.0
2017-Sep-07 20:00N 29°49' W 093°20'0 0.0
2017-Sep-07 19:30N 29°49' W 093°20'  
2017-Sep-05 00:16N 29°49' W 093°20'0 0.0
2017-Sep-05 00:00N 29°49' W 093°20'0 0.0
2017-Sep-04 23:30N 29°49' W 093°20'0 0.0
2017-Sep-04 23:00N 29°49' W 093°20'0 0.0
2017-Sep-04 22:30N 29°49' W 093°20'0 0.0
2017-Sep-04 22:00N 29°49' W 093°20'1 2.1
2017-Sep-04 21:28N 29°48' W 093°21'1 0.2
2017-Sep-04 16:22N 29°48' W 093°20'1 2.2
2017-Sep-04 15:48N 29°48' W 093°21'1 3.4
2017-Sep-04 15:30N 29°49' W 093°20'0 0.0
2017-Sep-04 15:00N 29°49' W 093°20'0 0.0
2017-Sep-04 14:30N 29°49' W 093°20'0 0.0
2017-Sep-02 21:10N 29°49' W 093°20'0 0.3
2017-Sep-02 21:00N 29°49' W 093°20'0 0.0
2017-Sep-02 20:30N 29°49' W 093°20'0 0.0
2017-Sep-02 20:00N 29°49' W 093°20'0 0.0
2017-Sep-02 19:30N 29°49' W 093°20'1 0.4
2017-Sep-02 17:51N 29°49' W 093°21'1 1.8
2017-Sep-02 17:30N 29°49' W 093°20'0 0.0
2017-Sep-02 17:00N 29°49' W 093°20'0 0.1
2017-Sep-02 16:30N 29°49' W 093°20'1 1.1
2017-Sep-02 16:00N 29°49' W 093°21'3 5.1
2017-Sep-02 15:30N 29°47' W 093°21'1 2.2
2017-Sep-02 14:54N 29°47' W 093°19'0 0.0
2017-Sep-02 14:30N 29°47' W 093°19'0 0.0
2017-Sep-02 14:00N 29°47' W 093°19'0 0.0
2017-Sep-02 13:30N 29°47' W 093°19'0 0.0
2017-Sep-02 13:00N 29°47' W 093°19'  
Track history (hours):
 
Tides and Currents Weather Stations Pressure Air Temp Water Temp Dewpoint Dewpoint Depression Visibility Wind Speed Wind Dir Waves Ship Positions

M/V Port Eads

Owner: Port Eads, LLC, Houma, LA. More information available from US FCC via Universal Licensing System and Coast Guard Vessel Documentation Center.

Last reported at 2017-Sep-12 12:37 UTC. Time now 2017-Sep-22 20:51 UTC.
Position N 28°54' W 090°42'.
Warning: this ship's position is 10 days out of date.

Length 47 m.

Type: Cargo ship. MMSI: 367317530.

Date/timePositionNaut miles runAvg speedWind from/ knotsBaromVisibWave heightAir tempDewpointWater temp
2017-Sep-12 12:37N 28°54' W 090°42'149 9.3
2017-Sep-11 20:33N 29°49' W 093°21'0 5.1
2017-Sep-11 20:30N 29°49' W 093°20'0 0.1
2017-Sep-11 19:47N 29°49' W 093°20'0 0.2
2017-Sep-11 19:29N 29°49' W 093°20'0 0.0
2017-Sep-11 18:48N 29°49' W 093°20'0 0.0
2017-Sep-11 18:17N 29°49' W 093°20'0 0.0
2017-Sep-11 17:58N 29°49' W 093°20'0 0.0
2017-Sep-11 17:26N 29°49' W 093°20'0 0.0
2017-Sep-11 16:59N 29°49' W 093°20'0 0.0
2017-Sep-11 11:28N 29°49' W 093°20'2 4.7
2017-Sep-11 10:59N 29°47' W 093°21'1 0.0
2017-Sep-10 01:06N 29°48' W 093°21'1 6.8
2017-Sep-10 00:57N 29°49' W 093°21'0 0.6
2017-Sep-10 00:18N 29°49' W 093°20'0 0.0
2017-Sep-09 22:47N 29°49' W 093°20'0 0.0
2017-Sep-09 17:39N 29°49' W 093°20'0 0.3
2017-Sep-09 17:20N 29°49' W 093°20'2 4.7
2017-Sep-09 16:52N 29°47' W 093°21'1 2.9
2017-Sep-09 16:30N 29°47' W 093°20'0 0.0
2017-Sep-09 16:00N 29°47' W 093°20'0 0.0
2017-Sep-09 15:30N 29°47' W 093°20'0 0.0
2017-Sep-09 15:01N 29°47' W 093°20'0 0.0
2017-Sep-09 14:29N 29°47' W 093°20'0 0.0
2017-Sep-09 13:57N 29°47' W 093°20'0 0.0
2017-Sep-09 13:13N 29°47' W 093°20'0 0.0
2017-Sep-09 13:00N 29°47' W 093°20'0 0.0
2017-Sep-09 12:30N 29°47' W 093°20'0 0.0
2017-Sep-09 12:01N 29°47' W 093°20'0 0.0
2017-Sep-09 11:29N 29°47' W 093°20'0 0.0
2017-Sep-09 10:57N 29°47' W 093°20'0 0.0
2017-Sep-09 10:26N 29°47' W 093°20'0 0.0
2017-Sep-09 09:58N 29°47' W 093°20'0 0.0
2017-Sep-09 09:30N 29°47' W 093°20'0 0.0
2017-Sep-09 08:58N 29°47' W 093°20'0 0.0
2017-Sep-09 08:30N 29°47' W 093°20'0 0.0
2017-Sep-09 07:59N 29°47' W 093°20'0 0.0
2017-Sep-09 07:30N 29°47' W 093°20'0 0.0
2017-Sep-09 07:00N 29°47' W 093°20'0 0.0
2017-Sep-09 06:30N 29°47' W 093°20'0 0.0
2017-Sep-09 04:29N 29°47' W 093°20'0 0.0
2017-Sep-09 03:50N 29°47' W 093°20'0 0.0
2017-Sep-09 02:20N 29°47' W 093°20'0 0.0
2017-Sep-09 02:00N 29°47' W 093°20'0 0.0
2017-Sep-09 01:21N 29°47' W 093°20'0 0.0
2017-Sep-09 01:00N 29°47' W 093°20'0 0.0
2017-Sep-09 00:30N 29°47' W 093°20'0 0.0
2017-Sep-09 00:00N 29°47' W 093°20'0 0.0
2017-Sep-08 23:30N 29°47' W 093°20'0 0.0
2017-Sep-08 23:00N 29°47' W 093°20'0 0.0
2017-Sep-08 22:30N 29°47' W 093°20'1 0.3
2017-Sep-08 20:23N 29°48' W 093°20'2 2.0
2017-Sep-08 19:34N 29°49' W 093°21'0 6.0
2017-Sep-08 19:30N 29°49' W 093°20'0 0.2
2017-Sep-08 19:00N 29°49' W 093°20'0 0.0
2017-Sep-08 18:30N 29°49' W 093°20'0 0.0
2017-Sep-08 18:00N 29°49' W 093°20'0 0.0
2017-Sep-08 17:30N 29°49' W 093°20'0 0.0
2017-Sep-08 17:00N 29°49' W 093°20'0 0.0
2017-Sep-08 16:30N 29°49' W 093°20'0 0.0
2017-Sep-08 16:00N 29°49' W 093°20'0 0.0
2017-Sep-08 15:30N 29°49' W 093°20'0 0.0
2017-Sep-08 15:00N 29°49' W 093°20'0 0.0
2017-Sep-08 14:30N 29°49' W 093°20'0 0.0
2017-Sep-08 13:10N 29°49' W 093°20'0 0.0
2017-Sep-08 13:00N 29°49' W 093°20'0 0.0
2017-Sep-08 12:30N 29°49' W 093°20'0 0.0
2017-Sep-08 12:00N 29°49' W 093°20'0 0.0
2017-Sep-08 11:27N 29°49' W 093°20'0 0.0
2017-Sep-08 09:54N 29°49' W 093°20'0 0.0
2017-Sep-08 08:48N 29°49' W 093°20'0 0.0
2017-Sep-08 08:18N 29°49' W 093°20'0 0.0
2017-Sep-08 07:55N 29°49' W 093°20'0 0.0
2017-Sep-08 07:31N 29°49' W 093°20'0 0.0
2017-Sep-08 06:44N 29°49' W 093°20'0 0.0
2017-Sep-08 06:16N 29°49' W 093°20'0 0.0
2017-Sep-08 04:57N 29°49' W 093°20'0 0.0
2017-Sep-08 03:06N 29°49' W 093°20'0 0.0
2017-Sep-08 02:38N 29°49' W 093°20'0 0.0
2017-Sep-08 02:17N 29°49' W 093°20'0 0.0
2017-Sep-08 02:00N 29°49' W 093°20'0 0.0
2017-Sep-08 01:30N 29°49' W 093°20'0 0.0
2017-Sep-08 01:00N 29°49' W 093°20'0 0.0
2017-Sep-08 00:30N 29°49' W 093°20'0 0.0
2017-Sep-08 00:00N 29°49' W 093°20'0 0.0
2017-Sep-07 23:30N 29°49' W 093°20'0 0.0
2017-Sep-07 23:00N 29°49' W 093°20'0 0.0
2017-Sep-07 22:30N 29°49' W 093°20'0 0.0
2017-Sep-07 22:00N 29°49' W 093°20'0 0.0
2017-Sep-07 21:30N 29°49' W 093°20'0 0.0
2017-Sep-07 21:00N 29°49' W 093°20'0 0.0
2017-Sep-07 20:30N 29°49' W 093°20'0 0.0
2017-Sep-07 20:00N 29°49' W 093°20'0 0.0
2017-Sep-07 19:30N 29°49' W 093°20'  
2017-Sep-05 00:16N 29°49' W 093°20'0 0.0
2017-Sep-05 00:00N 29°49' W 093°20'0 0.0
2017-Sep-04 23:30N 29°49' W 093°20'0 0.0
2017-Sep-04 23:00N 29°49' W 093°20'0 0.0
2017-Sep-04 22:30N 29°49' W 093°20'0 0.0
2017-Sep-04 22:00N 29°49' W 093°20'1 2.1
2017-Sep-04 21:28N 29°48' W 093°21'1 0.2
2017-Sep-04 16:22N 29°48' W 093°20'1 2.2
2017-Sep-04 15:48N 29°48' W 093°21'1 3.4
2017-Sep-04 15:30N 29°49' W 093°20'0 0.0
2017-Sep-04 15:00N 29°49' W 093°20'0 0.0
2017-Sep-04 14:30N 29°49' W 093°20'0 0.0
2017-Sep-02 21:10N 29°49' W 093°20'0 0.3
2017-Sep-02 21:00N 29°49' W 093°20'0 0.0
2017-Sep-02 20:30N 29°49' W 093°20'0 0.0
2017-Sep-02 20:00N 29°49' W 093°20'0 0.0
2017-Sep-02 19:30N 29°49' W 093°20'1 0.4
2017-Sep-02 17:51N 29°49' W 093°21'1 1.8
2017-Sep-02 17:30N 29°49' W 093°20'0 0.0
2017-Sep-02 17:00N 29°49' W 093°20'0 0.1
2017-Sep-02 16:30N 29°49' W 093°20'1 1.1
2017-Sep-02 16:00N 29°49' W 093°21'3 5.1
2017-Sep-02 15:30N 29°47' W 093°21'1 2.2
2017-Sep-02 14:54N 29°47' W 093°19'0 0.0
2017-Sep-02 14:30N 29°47' W 093°19'0 0.0
2017-Sep-02 14:00N 29°47' W 093°19'0 0.0
2017-Sep-02 13:30N 29°47' W 093°19'0 0.0
2017-Sep-02 13:00N 29°47' W 093°19'  

Dump ship's entire track history